sensor_id;sensor_type;location;lat;lon;timestamp;temperature;humidity
23452;DHT22;11898;51.130;6.780;2022-08-21T02:21:44;28.80;99.90
23452;DHT22;11898;51.130;6.780;2022-08-21T02:24:13;18.80;99.90
23452;DHT22;11898;51.130;6.780;2022-08-21T02:26:41;19.10;99.90
23452;DHT22;11898;51.130;6.780;2022-08-21T02:29:10;18.90;99.90
23452;DHT22;11898;51.130;6.780;2022-08-21T02:31:39;19.00;99.90
23452;DHT22;11898;51.130;6.780;2022-08-21T02:34:07;18.80;99.90
23452;DHT22;11898;51.130;6.780;2022-08-21T02:36:36;18.80;99.90
23452;DHT22;11898;51.130;6.780;2022-08-21T02:39:05;18.70;99.90
23452;DHT22;11898;51.130;6.780;2022-08-21T02:41:33;18.70;99.90
23452;DHT22;11898;51.130;6.780;2022-08-21T02:44:02;18.50;99.90
23452;DHT22;11898;51.130;6.780;2022-08-21T02:46:31;18.50;99.90
23452;DHT22;11898;51.130;6.780;2022-08-21T02:48:59;18.40;99.90
23452;DHT22;11898;51.130;6.780;2022-08-21T02:51:33;18.40;99.90
23452;DHT22;11898;51.130;6.780;2022-08-21T02:53:58;18.30;99.90
23452;DHT22;11898;51.130;6.780;2022-08-21T02:56:27;18.40;99.90
23452;DHT22;11898;51.130;6.780;2022-08-21T02:58:58;18.30;99.90
23452;DHT22;11898;51.130;6.780;2022-08-21T03:01:26;18.50;99.90
23452;DHT22;11898;51.130;6.780;2022-08-21T03:03:55;18.30;99.90
23452;DHT22;11898;51.130;6.780;2022-08-21T03:06:24;18.40;99.90
23452;DHT22;11898;51.130;6.780;2022-08-21T03:08:52;18.30;99.90
23452;DHT22;11898;51.130;6.780;2022-08-21T03:11:21;18.30;99.90
23452;DHT22;11898;51.130;6.780;2022-08-21T03:13:50;18.40;99.90
23452;DHT22;11898;51.130;6.780;2022-08-21T03:16:19;18.30;99.90
23452;DHT22;11898;51.130;6.780;2022-08-21T03:18:48;18.40;99.90
23452;DHT22;11898;51.130;6.780;2022-08-21T03:21:16;18.40;99.90
23452;DHT22;11898;51.130;6.780;2022-08-21T03:23:46;18.40;99.90
23452;DHT22;11898;51.130;6.780;2022-08-21T03:26:14;18.30;99.90
23452;DHT22;11898;51.130;6.780;2022-08-21T03:28:45;18.30;99.90
23452;DHT22;11898;51.130;6.780;2022-08-21T03:31:13;18.30;99.90
23452;DHT22;11898;51.130;6.780;2022-08-21T03:33:42;18.20;99.90
23452;DHT22;11898;51.130;6.780;2022-08-21T03:36:12;18.10;99.90
23452;DHT22;11898;51.130;6.780;2022-08-21T03:38:41;18.20;99.90
23452;DHT22;11898;51.130;6.780;2022-08-21T03:41:09;18.20;99.90
23452;DHT22;11898;51.130;6.780;2022-08-21T03:43:38;18.20;99.90
23452;DHT22;11898;51.130;6.780;2022-08-21T03:46:07;18.20;99.90
23452;DHT22;11898;51.130;6.780;2022-08-21T03:48:36;18.10;99.90
23452;DHT22;11898;51.130;6.780;2022-08-21T03:51:06;18.10;99.90
23452;DHT22;11898;51.130;6.780;2022-08-21T03:53:35;18.10;99.90
23452;DHT22;11898;51.130;6.780;2022-08-21T03:56:05;18.10;99.90
23452;DHT22;11898;51.130;6.780;2022-08-21T03:58:34;18.10;99.90
23452;DHT22;11898;51.130;6.780;2022-08-21T04:01:03;18.10;99.90
23452;DHT22;11898;51.130;6.780;2022-08-21T04:03:37;18.00;99.90
23452;DHT22;11898;51.130;6.780;2022-08-21T04:06:06;18.00;99.90
23452;DHT22;11898;51.130;6.780;2022-08-21T04:08:35;18.10;99.90
23452;DHT22;11898;51.130;6.780;2022-08-21T04:11:05;18.10;99.90
23452;DHT22;11898;51.130;6.780;2022-08-21T04:13:35;18.10;99.90
23452;DHT22;11898;51.130;6.780;2022-08-21T04:16:06;18.00;99.90
23452;DHT22;11898;51.130;6.780;2022-08-21T04:18:35;18.10;99.90
23452;DHT22;11898;51.130;6.780;2022-08-21T04:21:04;18.00;99.90
23452;DHT22;11898;51.130;6.780;2022-08-21T04:23:35;18.00;99.90
23452;DHT22;11898;51.130;6.780;2022-08-21T04:26:04;17.90;99.90
23452;DHT22;11898;51.130;6.780;2022-08-21T04:28:33;17.90;99.90
23452;DHT22;11898;51.130;6.780;2022-08-21T04:31:02;18.90;99.90
23452;DHT22;11898;51.130;6.780;2022-08-21T04:33:31;17.80;99.90
23452;DHT22;11898;51.130;6.780;2022-08-21T04:35:59;17.80;99.90
23452;DHT22;11898;51.130;6.780;2022-08-21T04:38:29;17.70;99.90
23452;DHT22;11898;51.130;6.780;2022-08-21T04:41:00;17.50;99.90
23452;DHT22;11898;51.130;6.780;2022-08-21T04:43:29;17.60;99.90
23452;DHT22;11898;51.130;6.780;2022-08-21T04:45:58;17.60;99.90
23452;DHT22;11898;51.130;6.780;2022-08-21T04:48:27;17.80;99.90
23452;DHT22;11898;51.130;6.780;2022-08-21T04:51:07;17.60;99.90
23452;DHT22;11898;51.130;6.780;2022-08-21T04:53:40;17.60;99.90
23452;DHT22;11898;51.130;6.780;2022-08-21T04:56:14;17.60;99.90
23452;DHT22;11898;51.130;6.780;2022-08-21T04:59:07;17.60;99.90
23452;DHT22;11898;51.130;6.780;2022-08-21T05:01:37;17.60;99.90
23452;DHT22;11898;51.130;6.780;2022-08-21T05:04:10;17.50;99.90
23452;DHT22;11898;51.130;6.780;2022-08-21T05:06:41;17.60;99.90
23452;DHT22;11898;51.130;6.780;2022-08-21T05:09:12;17.60;99.90
23452;DHT22;11898;51.130;6.780;2022-08-21T05:11:43;17.60;99.90
23452;DHT22;11898;51.130;6.780;2022-08-21T05:14:12;17.60;99.90
23452;DHT22;11898;51.130;6.780;2022-08-21T05:16:41;17.60;99.90
23452;DHT22;11898;51.130;6.780;2022-08-21T05:19:12;17.50;99.90
23452;DHT22;11898;51.130;6.780;2022-08-21T05:21:42;17.80;99.90
23452;DHT22;11898;51.130;6.780;2022-08-21T05:24:12;17.90;99.90
23452;DHT22;11898;51.130;6.780;2022-08-21T05:26:40;17.90;99.90
23452;DHT22;11898;51.130;6.780;2022-08-21T05:29:11;18.00;99.90
23452;DHT22;11898;51.130;6.780;2022-08-21T05:31:39;18.20;99.90
23452;DHT22;11898;51.130;6.780;2022-08-21T05:34:08;18.40;99.90
23452;DHT22;11898;51.130;6.780;2022-08-21T05:36:37;18.50;99.90
23452;DHT22;11898;51.130;6.780;2022-08-21T05:39:05;18.70;99.90
23452;DHT22;11898;51.130;6.780;2022-08-21T05:41:34;18.90;99.90
23452;DHT22;11898;51.130;6.780;2022-08-21T05:44:03;19.00;99.90
23452;DHT22;11898;51.130;6.780;2022-08-21T05:46:33;19.20;99.90
23452;DHT22;11898;51.130;6.780;2022-08-21T05:49:02;19.40;99.90
23452;DHT22;11898;51.130;6.780;2022-08-21T05:51:31;19.60;99.90
23452;DHT22;11898;51.130;6.780;2022-08-21T05:54:00;19.60;99.90
23452;DHT22;11898;51.130;6.780;2022-08-21T05:56:28;20.00;99.90
23452;DHT22;11898;51.130;6.780;2022-08-21T05:58:57;20.10;99.90
23452;DHT22;11898;51.130;6.780;2022-08-21T06:01:26;20.30;99.90
23452;DHT22;11898;51.130;6.780;2022-08-21T06:03:56;20.30;99.90
23452;DHT22;11898;51.130;6.780;2022-08-21T06:06:27;20.50;99.90
23452;DHT22;11898;51.130;6.780;2022-08-21T06:08:57;20.60;99.90
23452;DHT22;11898;51.130;6.780;2022-08-21T06:11:25;20.80;99.90
23452;DHT22;11898;51.130;6.780;2022-08-21T06:13:56;20.80;99.90
23452;DHT22;11898;51.130;6.780;2022-08-21T06:16:27;20.90;99.90
23452;DHT22;11898;51.130;6.780;2022-08-21T06:18:55;21.10;99.90
23452;DHT22;11898;51.130;6.780;2022-08-21T06:21:25;21.20;99.90
23452;DHT22;11898;51.130;6.780;2022-08-21T06:23:54;21.40;99.90
23452;DHT22;11898;51.130;6.780;2022-08-21T06:26:23;21.70;99.90
23452;DHT22;11898;51.130;6.780;2022-08-21T06:28:52;21.80;99.90
23452;DHT22;11898;51.130;6.780;2022-08-21T06:31:24;21.80;99.90
23452;DHT22;11898;51.130;6.780;2022-08-21T06:33:53;22.00;99.90
23452;DHT22;11898;51.130;6.780;2022-08-21T06:36:22;22.10;99.90
23452;DHT22;11898;51.130;6.780;2022-08-21T06:38:51;22.20;99.90
23452;DHT22;11898;51.130;6.780;2022-08-21T06:41:20;22.30;99.90
23452;DHT22;11898;51.130;6.780;2022-08-21T06:43:50;22.40;99.90
23452;DHT22;11898;51.130;6.780;2022-08-21T06:46:19;22.60;99.90
23452;DHT22;11898;51.130;6.780;2022-08-21T06:48:48;22.70;99.90
23452;DHT22;11898;51.130;6.780;2022-08-21T06:58:42;22.90;99.90
23452;DHT22;11898;51.130;6.780;2022-08-21T07:01:12;23.70;99.90
23452;DHT22;11898;51.130;6.780;2022-08-21T07:03:42;23.80;99.90
23452;DHT22;11898;51.130;6.780;2022-08-21T07:06:11;24.40;99.90
23452;DHT22;11898;51.130;6.780;2022-08-21T07:08:40;24.10;99.90
23452;DHT22;11898;51.130;6.780;2022-08-21T07:11:20;24.20;99.90
23452;DHT22;11898;51.130;6.780;2022-08-21T07:13:51;24.30;99.90
23452;DHT22;11898;51.130;6.780;2022-08-21T07:16:22;24.30;99.90
23452;DHT22;11898;51.130;6.780;2022-08-21T07:18:50;24.40;99.90
23452;DHT22;11898;51.130;6.780;2022-08-21T07:21:19;24.60;99.90
23452;DHT22;11898;51.130;6.780;2022-08-21T07:23:50;24.70;99.90
23452;DHT22;11898;51.130;6.780;2022-08-21T07:26:21;24.70;99.90
23452;DHT22;11898;51.130;6.780;2022-08-21T07:28:51;24.70;99.90
23452;DHT22;11898;51.130;6.780;2022-08-21T07:31:22;24.80;99.90
23452;DHT22;11898;51.130;6.780;2022-08-21T07:33:51;24.90;99.90
23452;DHT22;11898;51.130;6.780;2022-08-21T07:36:20;24.80;99.90
23452;DHT22;11898;51.130;6.780;2022-08-21T07:38:48;24.80;99.90
23452;DHT22;11898;51.130;6.780;2022-08-21T07:41:25;24.70;99.90
23452;DHT22;11898;51.130;6.780;2022-08-21T07:43:56;24.70;99.90
23452;DHT22;11898;51.130;6.780;2022-08-21T07:46:26;24.40;99.90
23452;DHT22;11898;51.130;6.780;2022-08-21T07:48:55;24.30;99.90
23452;DHT22;11898;51.130;6.780;2022-08-21T07:51:26;24.20;99.90
23452;DHT22;11898;51.130;6.780;2022-08-21T07:53:56;24.20;99.90
23452;DHT22;11898;51.130;6.780;2022-08-21T07:56:27;24.20;99.90
23452;DHT22;11898;51.130;6.780;2022-08-21T07:58:58;24.20;99.90
23452;DHT22;11898;51.130;6.780;2022-08-21T08:01:30;24.20;99.90
23452;DHT22;11898;51.130;6.780;2022-08-21T08:04:00;24.20;99.90
23452;DHT22;11898;51.130;6.780;2022-08-21T08:06:29;24.40;99.90
23452;DHT22;11898;51.130;6.780;2022-08-21T08:08:58;24.50;99.90
23452;DHT22;11898;51.130;6.780;2022-08-21T08:11:26;24.80;99.90
23452;DHT22;11898;51.130;6.780;2022-08-21T08:13:55;24.80;99.90
23452;DHT22;11898;51.130;6.780;2022-08-21T08:16:26;24.80;99.90
23452;DHT22;11898;51.130;6.780;2022-08-21T08:18:55;25.00;99.90
23452;DHT22;11898;51.130;6.780;2022-08-21T08:21:23;25.20;99.90
23452;DHT22;11898;51.130;6.780;2022-08-21T08:23:52;25.60;99.90
23452;DHT22;11898;51.130;6.780;2022-08-21T08:26:21;26.00;99.90
23452;DHT22;11898;51.130;6.780;2022-08-21T08:28:50;25.70;99.90
23452;DHT22;11898;51.130;6.780;2022-08-21T08:31:19;25.90;99.90
23452;DHT22;11898;51.130;6.780;2022-08-21T08:33:47;26.00;99.90
23452;DHT22;11898;51.130;6.780;2022-08-21T08:36:17;25.90;99.90
23452;DHT22;11898;51.130;6.780;2022-08-21T08:38:47;25.80;99.90
23452;DHT22;11898;51.130;6.780;2022-08-21T08:41:18;25.70;99.90
23452;DHT22;11898;51.130;6.780;2022-08-21T08:43:54;25.60;99.90
23452;DHT22;11898;51.130;6.780;2022-08-21T08:46:41;25.50;99.90
23452;DHT22;11898;51.130;6.780;2022-08-21T08:52:00;25.30;99.90
23452;DHT22;11898;51.130;6.780;2022-08-21T08:54:31;25.20;99.90
23452;DHT22;11898;51.130;6.780;2022-08-21T08:57:04;25.20;99.90
23452;DHT22;11898;51.130;6.780;2022-08-21T08:59:39;25.20;99.90
23452;DHT22;11898;51.130;6.780;2022-08-21T09:02:12;25.30;99.90
23452;DHT22;11898;51.130;6.780;2022-08-21T09:04:41;25.40;99.90
23452;DHT22;11898;51.130;6.780;2022-08-21T09:10:03;26.20;99.90
23452;DHT22;11898;51.130;6.780;2022-08-21T09:12:42;25.70;99.90
23452;DHT22;11898;51.130;6.780;2022-08-21T09:26:16;25.40;99.90
23452;DHT22;11898;51.130;6.780;2022-08-21T09:28:49;25.40;99.90
23452;DHT22;11898;51.130;6.780;2022-08-21T09:31:34;25.40;99.90
23452;DHT22;11898;51.130;6.780;2022-08-21T09:34:06;25.40;99.90
23452;DHT22;11898;51.130;6.780;2022-08-21T09:36:45;25.50;99.90
23452;DHT22;11898;51.130;6.780;2022-08-21T09:39:28;25.50;99.90
23452;DHT22;11898;51.130;6.780;2022-08-21T09:42:00;25.50;99.90
23452;DHT22;11898;51.130;6.780;2022-08-21T09:44:32;25.50;99.90
23452;DHT22;11898;51.130;6.780;2022-08-21T09:47:01;25.50;99.90
23452;DHT22;11898;51.130;6.780;2022-08-21T09:49:32;25.20;99.90
23452;DHT22;11898;51.130;6.780;2022-08-21T09:52:06;25.70;99.90
23452;DHT22;11898;51.130;6.780;2022-08-21T09:54:37;25.90;99.90
23452;DHT22;11898;51.130;6.780;2022-08-21T10:00:20;26.20;99.90
23452;DHT22;11898;51.130;6.780;2022-08-21T10:02:45;26.30;99.90
23452;DHT22;11898;51.130;6.780;2022-08-21T10:05:20;26.20;99.90
23452;DHT22;11898;51.130;6.780;2022-08-21T10:07:50;26.50;99.90
23452;DHT22;11898;51.130;6.780;2022-08-21T10:10:26;26.70;99.90
23452;DHT22;11898;51.130;6.780;2022-08-21T10:18:52;27.10;99.90
23452;DHT22;11898;51.130;6.780;2022-08-21T10:21:46;27.10;99.90
23452;DHT22;11898;51.130;6.780;2022-08-21T10:24:17;27.30;99.90
23452;DHT22;11898;51.130;6.780;2022-08-21T13:32:33;27.40;99.90
23452;DHT22;11898;51.130;6.780;2022-08-21T13:35:11;33.40;99.90
23452;DHT22;11898;51.130;6.780;2022-08-21T13:37:41;33.20;99.90
23452;DHT22;11898;51.130;6.780;2022-08-21T13:40:12;33.30;99.90
23452;DHT22;11898;51.130;6.780;2022-08-21T13:42:43;33.30;99.90
23452;DHT22;11898;51.130;6.780;2022-08-21T13:45:18;33.40;99.90
23452;DHT22;11898;51.130;6.780;2022-08-21T13:47:40;33.40;99.90
23452;DHT22;11898;51.130;6.780;2022-08-21T13:50:09;33.30;99.90
23452;DHT22;11898;51.130;6.780;2022-08-21T13:55:12;34.90;99.90
23452;DHT22;11898;51.130;6.780;2022-08-21T16:33:01;33.40;99.90
23452;DHT22;11898;51.130;6.780;2022-08-21T16:35:30;30.90;99.90
23452;DHT22;11898;51.130;6.780;2022-08-21T16:37:58;30.60;99.90
23452;DHT22;11898;51.130;6.780;2022-08-21T16:40:26;30.50;99.90
23452;DHT22;11898;51.130;6.780;2022-08-21T16:45:23;30.40;99.90
23452;DHT22;11898;51.130;6.780;2022-08-21T16:47:53;30.10;99.90
23452;DHT22;11898;51.130;6.780;2022-08-21T16:50:21;30.10;99.90
23452;DHT22;11898;51.130;6.780;2022-08-21T16:52:50;29.70;99.90
23452;DHT22;11898;51.130;6.780;2022-08-21T16:55:18;29.90;99.90
23452;DHT22;11898;51.130;6.780;2022-08-21T16:57:46;29.90;99.90
23452;DHT22;11898;51.130;6.780;2022-08-21T17:00:14;29.90;99.90
23452;DHT22;11898;51.130;6.780;2022-08-21T17:02:46;30.00;99.90
23452;DHT22;11898;51.130;6.780;2022-08-21T17:05:11;30.10;99.90
23452;DHT22;11898;51.130;6.780;2022-08-21T17:07:40;30.10;99.90
23452;DHT22;11898;51.130;6.780;2022-08-21T17:10:09;30.10;99.90
23452;DHT22;11898;51.130;6.780;2022-08-21T17:12:38;30.10;99.90
23452;DHT22;11898;51.130;6.780;2022-08-21T17:15:08;30.20;99.90
23452;DHT22;11898;51.130;6.780;2022-08-21T17:17:36;30.10;99.90
23452;DHT22;11898;51.130;6.780;2022-08-21T17:20:04;30.10;99.90
23452;DHT22;11898;51.130;6.780;2022-08-21T17:22:32;30.10;99.90
23452;DHT22;11898;51.130;6.780;2022-08-21T17:25:00;30.20;99.90
23452;DHT22;11898;51.130;6.780;2022-08-21T17:27:28;30.10;99.90
23452;DHT22;11898;51.130;6.780;2022-08-21T17:29:56;30.00;99.90
23452;DHT22;11898;51.130;6.780;2022-08-21T17:32:24;29.90;99.90
23452;DHT22;11898;51.130;6.780;2022-08-21T17:34:53;29.80;99.90
23452;DHT22;11898;51.130;6.780;2022-08-21T20:11:58;29.70;99.90
23452;DHT22;11898;51.130;6.780;2022-08-21T20:14:31;24.80;99.90
23452;DHT22;11898;51.130;6.780;2022-08-21T20:17:05;24.50;99.90
